METAR v bližini

 

LIPQ - Ronchi Legionari, Italy
Oddaljenost od postaje: JZ 35km
Podatki zajeti: 18. 10. 2021 22:50
Jasno
Jasno
 Veter iz smeri spremenljiv
Veter: spremenljiv 2 km/h
Temperatura: 8°C
Temp. rosišča: 8°C
Vlažnost: 100%
Tlak: 1027 hPa
Oblačnost: Jasno
Vidljivost: 10 km
2021/10/18 20:50 LIPQ 182050Z AUTO VRB01KT 9999 NCD 08/08 Q1027
LIVT - Trieste, Italy
Oddaljenost od postaje: J 49km
Podatki zajeti: 18. 10. 2021 19:55
Ni posodobljen
Jasno
Jasno
 Veter iz smeri calm
Veter: Tišina
Temperatura: 15°C
Temp. rosišča: 9°C
Vlažnost: 68%
Tlak: 1024 hPa
Stanje: Jasno
Vidljivost: večja od 10 km
2021/10/18 17:55 LIVT 181755Z 00000KT CAVOK 15/09 Q1024 RMK SKC QUK / QUL / VIS MAR 20 KM VIS MIN 9999
 
LIVO - Tarvisio, Italy
Oddaljenost od postaje: SSZ 49km
Podatki zajeti: 18. 10. 2021 19:55
Ni posodobljen
Jasno
Jasno
 Veter iz smeri calm
Veter: Tišina
Temperatura: 7°C
Temp. rosišča: 6°C
Vlažnost: 93%
Tlak: 1026 hPa
Stanje: Jasno
Vidljivost: večja od 10 km
2021/10/18 17:55 LIVO 181755Z 00000KT CAVOK 07/06 Q1026 RMK SKC VIS MIN 9999
LIPI - Rivolto (it-Afb), Italy
Oddaljenost od postaje: ZJZ 57km
Podatki zajeti: 18. 10. 2021 22:55
Jasno
Jasno
 Veter iz smeri SSV
Veter: SSV 9 km/h
Temperatura: 9°C
Občutek mraza zaradi vetra: 7°C
Temp. rosišča: 7°C
Vlažnost: 87%
Tlak: 1026 hPa
Stanje: Jasno
Vidljivost: večja od 10 km
2021/10/18 20:55 LIPI 182055Z 02005KT CAVOK 09/07 Q1026 RMK SKC VIS MIN 9999 WIND THR06 05007KT WIND THR24 04005KT BLU
 
LJLJ - Ljubljana/Brnik, Slovenia
Oddaljenost od postaje: VSV 59km
Podatki zajeti: 18. 10. 2021 23:00
Pretežno oblačno
Pretežno oblačno
 Veter iz smeri spremenljiv
Veter: spremenljiv 2 km/h
Temperatura: 9°C
Temp. rosišča: 8°C
Vlažnost: 94%
Tlak: 1029 hPa
Oblačnost: Pretežno oblačno
Vidljivost: 10 km
Podrobnosti o oblakih: Pretežno oblačno 1006 m
2021/10/18 21:00 LJLJ 182100Z VRB01KT 9999 BKN033 09/08 Q1029 NOSIG
LJPZ - Portoroz, Slovenia
Oddaljenost od postaje: J 68km
Podatki zajeti: 18. 10. 2021 23:00
Jasno
Jasno
 Veter iz smeri VJV
Veter: VJV 13 km/h
Temperatura: 9°C
Občutek mraza zaradi vetra: 7°C
Temp. rosišča: 7°C
Vlažnost: 87%
Tlak: 1027 hPa
Oblačnost: Jasno
Vidljivost: 10 km
2021/10/18 21:00 LJPZ 182100Z AUTO 12007KT 9999 NCD 09/07 Q1027
 
LOWK - Klagenfurt(Civ/M, Austria
Oddaljenost od postaje: SV 78km
Podatki zajeti: 18. 10. 2021 22:50
Jasno
Jasno
 Veter iz smeri ZSZ
Veter: ZSZ 9 km/h
Temperatura: 6°C
Občutek mraza zaradi vetra: 4°C
Temp. rosišča: 5°C
Vlažnost: 93%
Tlak: 1029 hPa
Stanje: Jasno
Vidljivost: večja od 10 km
2021/10/18 20:50 LOWK 182050Z AUTO 30005KT CAVOK 06/05 Q1029 NOSIG
LIPA - Aviano (it/Us-Af, Italy
Oddaljenost od postaje: Z 89km
Podatki zajeti: 18. 10. 2021 19:55
Ni posodobljen
Jasno
Jasno
 Veter iz smeri SSV
Veter: SSV 9 km/h
Temperatura: 12°C
Temp. rosišča: 10°C
Vlažnost: 88%
Tlak: 1025 hPa
Stanje: Jasno
Vidljivost: večja od 10 km
2021/10/18 17:55 LIPA 181755Z 02005KT CAVOK 12/10 Q1025 RMK SKC VIS MIN 9999 WIND THR05 /////KT WIND THR23 /////KT A3028 BLU
 
LDRI - Rijeka/Omisalj, Croatia
Oddaljenost od postaje: JV 115km
Podatki zajeti: 18. 10. 2021 23:00
Jasno
Jasno
 Veter iz smeri VSV
Veter: VSV 15 km/h
Temperatura: 15°C
Temp. rosišča: 4°C
Vlažnost: 48%
Tlak: 1027 hPa
Stanje: Jasno
Vidljivost: večja od 10 km
2021/10/18 21:00 LDRI 182100Z 06008KT CAVOK 15/04 Q1027
LIPZ - Venezia/Tessera, Italy
Oddaljenost od postaje: ZJZ 127km
Podatki zajeti: 18. 10. 2021 22:50
Jasno
Jasno
 Veter iz smeri Z
Veter: Z 6 km/h
Temperatura: 12°C
Temp. rosišča: 10°C
Vlažnost: 88%
Tlak: 1027 hPa
Stanje: Jasno
Vidljivost: večja od 10 km
2021/10/18 20:50 LIPZ 182050Z 26003KT CAVOK 12/10 Q1027 NOSIG
 
LDPL - Pula, Croatia
Oddaljenost od postaje: J 133km
Podatki zajeti: 18. 10. 2021 23:00
Jasno
Jasno
 Veter iz smeri SV
Veter: SV 13 km/h
Temperatura: 12°C
Temp. rosišča: 6°C
Vlažnost: 67%
Tlak: 1027 hPa
Stanje: Jasno
Vidljivost: večja od 10 km
2021/10/18 21:00 LDPL 182100Z 04007KT CAVOK 12/06 Q1027 NOSIG
LIPS - Istrana (it-Afb), Italy
Oddaljenost od postaje: ZJZ 136km
Podatki zajeti: 18. 10. 2021 22:55
Delno oblačno
Delno oblačno
 Veter iz smeri calm
Veter: Tišina
Temperatura: 12°C
Temp. rosišča: 10°C
Vlažnost: 88%
Tlak: 1026 hPa
Oblačnost: Delno oblačno
Vidljivost: 8 km
2021/10/18 20:55 LIPS 182055Z 00000KT 8000 NSC 12/10 Q1026 RMK SKC VIS MIN 8000 WIND THR26 00000KT WIND THR08 00000KT BLK BLU
 
LIVD - Dobbiaco, Italy
Oddaljenost od postaje: ZSZ 137km
Podatki zajeti: 18. 10. 2021 19:55
Ni posodobljen
Jasno
Jasno
 Veter iz smeri spremenljiv
Veter: spremenljiv 0 km/h
Temperatura: 7°C
Temp. rosišča: 2°C
Vlažnost: 71%
Tlak: 1027 hPa
Stanje: Jasno
Vidljivost: večja od 10 km
2021/10/18 17:55 LIVD 181755Z /////KT CAVOK 07/02 Q1027 RMK SKC VIS MIN 9999
LJCE - Cerklje, Slovenia
Oddaljenost od postaje: V 139km
Podatki zajeti: 18. 10. 2021 23:00
Meglice, Rahlo oblačno
Meglice, Rahlo oblačno
 Veter iz smeri spremenljiv
Veter: spremenljiv 2 km/h
Temperatura: 5°C
Temp. rosišča: 5°C
Vlažnost: 100%
Tlak: 1029 hPa
Stanje: Meglice
Oblačnost: Rahlo oblačno
Vidljivost: 6 km
Podrobnosti o oblakih: Rahlo oblačno 244 m
2021/10/18 21:00 LJCE 182100Z AUTO VRB01KT 6000 BR FEW008/// 05/05 Q1029
 
LOXZ - Zeltweg (mil), Austria
Oddaljenost od postaje: SSV 147km
Podatki zajeti: 18. 10. 2021 22:50
Rahlo oblačno
Rahlo oblačno
 Veter iz smeri spremenljiv
Veter: spremenljiv 4 km/h
Temperatura: 3°C
Temp. rosišča: 3°C
Vlažnost: 100%
Tlak: 1028 hPa
Oblačnost: Rahlo oblačno
Podrobnosti o oblakih: Rahlo oblačno 1219 m
2021/10/18 20:50 LOXZ 182050Z VRB02KT 20KM FEW040SC 03/03 Q1028
sucontract_SNC